sensor_id;sensor_type;location;lat;lon;timestamp;P1;durP1;ratioP1;P2;durP2;ratioP2
26211;SDS011;13951;49.516;6.094;2023-02-23T00:01:15;25.27;;;11.80;;
26211;SDS011;13951;49.516;6.094;2023-02-23T00:03:49;24.93;;;12.27;;
26211;SDS011;13951;49.516;6.094;2023-02-23T00:06:24;24.77;;;11.90;;
26211;SDS011;13951;49.516;6.094;2023-02-23T00:08:57;15.83;;;8.60;;
26211;SDS011;13951;49.516;6.094;2023-02-23T00:11:32;9.60;;;5.73;;
26211;SDS011;13951;49.516;6.094;2023-02-23T00:14:05;8.13;;;5.07;;
26211;SDS011;13951;49.516;6.094;2023-02-23T00:16:39;7.90;;;4.57;;
26211;SDS011;13951;49.516;6.094;2023-02-23T00:19:16;8.47;;;4.83;;
26211;SDS011;13951;49.516;6.094;2023-02-23T00:21:49;6.07;;;4.40;;
26211;SDS011;13951;49.516;6.094;2023-02-23T00:24:22;5.40;;;4.30;;
26211;SDS011;13951;49.516;6.094;2023-02-23T00:26:58;5.33;;;4.13;;
26211;SDS011;13951;49.516;6.094;2023-02-23T00:29:31;5.23;;;4.10;;
26211;SDS011;13951;49.516;6.094;2023-02-23T00:32:09;6.47;;;4.20;;
26211;SDS011;13951;49.516;6.094;2023-02-23T00:34:42;6.63;;;4.10;;
26211;SDS011;13951;49.516;6.094;2023-02-23T00:37:16;5.87;;;4.20;;
26211;SDS011;13951;49.516;6.094;2023-02-23T00:39:53;7.40;;;4.70;;
26211;SDS011;13951;49.516;6.094;2023-02-23T00:42:27;5.70;;;4.33;;
26211;SDS011;13951;49.516;6.094;2023-02-23T00:45:05;6.90;;;4.27;;
26211;SDS011;13951;49.516;6.094;2023-02-23T00:47:43;5.73;;;4.03;;
26211;SDS011;13951;49.516;6.094;2023-02-23T00:50:17;5.43;;;3.80;;
26211;SDS011;13951;49.516;6.094;2023-02-23T00:52:50;6.60;;;4.80;;
26211;SDS011;13951;49.516;6.094;2023-02-23T00:55:23;7.13;;;4.13;;
26211;SDS011;13951;49.516;6.094;2023-02-23T00:57:56;6.10;;;4.33;;
26211;SDS011;13951;49.516;6.094;2023-02-23T01:00:29;7.87;;;4.73;;
26211;SDS011;13951;49.516;6.094;2023-02-23T01:03:02;7.23;;;4.30;;
26211;SDS011;13951;49.516;6.094;2023-02-23T01:05:35;6.30;;;4.13;;
26211;SDS011;13951;49.516;6.094;2023-02-23T01:08:09;5.40;;;3.83;;
26211;SDS011;13951;49.516;6.094;2023-02-23T01:10:43;6.50;;;4.50;;
26211;SDS011;13951;49.516;6.094;2023-02-23T01:13:23;5.50;;;4.10;;
26211;SDS011;13951;49.516;6.094;2023-02-23T01:15:57;6.60;;;4.00;;
26211;SDS011;13951;49.516;6.094;2023-02-23T01:18:30;5.80;;;4.03;;
26211;SDS011;13951;49.516;6.094;2023-02-23T01:21:13;6.03;;;3.93;;
26211;SDS011;13951;49.516;6.094;2023-02-23T01:23:47;7.43;;;5.13;;
26211;SDS011;13951;49.516;6.094;2023-02-23T01:26:21;8.63;;;4.40;;
26211;SDS011;13951;49.516;6.094;2023-02-23T01:28:55;6.53;;;4.30;;
26211;SDS011;13951;49.516;6.094;2023-02-23T01:31:29;7.87;;;4.83;;
26211;SDS011;13951;49.516;6.094;2023-02-23T01:34:03;6.83;;;4.60;;
26211;SDS011;13951;49.516;6.094;2023-02-23T01:36:37;9.57;;;4.37;;
26211;SDS011;13951;49.516;6.094;2023-02-23T01:39:11;7.73;;;4.70;;
26211;SDS011;13951;49.516;6.094;2023-02-23T01:41:45;7.17;;;4.40;;
26211;SDS011;13951;49.516;6.094;2023-02-23T01:46:53;10.43;;;5.87;;
26211;SDS011;13951;49.516;6.094;2023-02-23T01:49:27;9.47;;;5.57;;
26211;SDS011;13951;49.516;6.094;2023-02-23T01:52:02;9.97;;;5.03;;
26211;SDS011;13951;49.516;6.094;2023-02-23T01:54:37;10.67;;;5.43;;
26211;SDS011;13951;49.516;6.094;2023-02-23T01:57:11;8.47;;;5.07;;
26211;SDS011;13951;49.516;6.094;2023-02-23T01:59:45;9.63;;;4.87;;
26211;SDS011;13951;49.516;6.094;2023-02-23T02:02:18;9.57;;;5.30;;
26211;SDS011;13951;49.516;6.094;2023-02-23T02:04:53;8.00;;;4.83;;
26211;SDS011;13951;49.516;6.094;2023-02-23T02:07:32;11.37;;;5.67;;
26211;SDS011;13951;49.516;6.094;2023-02-23T02:10:06;11.03;;;5.83;;
26211;SDS011;13951;49.516;6.094;2023-02-23T02:12:48;12.53;;;5.30;;
26211;SDS011;13951;49.516;6.094;2023-02-23T02:15:23;9.30;;;5.03;;
26211;SDS011;13951;49.516;6.094;2023-02-23T02:18:16;11.73;;;5.73;;
26211;SDS011;13951;49.516;6.094;2023-02-23T02:23:51;11.77;;;5.50;;
26211;SDS011;13951;49.516;6.094;2023-02-23T02:40:18;11.90;;;5.90;;
26211;SDS011;13951;49.516;6.094;2023-02-23T02:45:47;13.93;;;6.27;;
26211;SDS011;13951;49.516;6.094;2023-02-23T02:48:24;9.63;;;5.33;;
26211;SDS011;13951;49.516;6.094;2023-02-23T02:53:40;14.03;;;6.57;;
26211;SDS011;13951;49.516;6.094;2023-02-23T02:56:14;15.70;;;6.83;;
26211;SDS011;13951;49.516;6.094;2023-02-23T02:58:51;12.37;;;6.30;;
26211;SDS011;13951;49.516;6.094;2023-02-23T03:01:24;11.67;;;5.77;;
26211;SDS011;13951;49.516;6.094;2023-02-23T03:04:21;11.93;;;4.93;;
26211;SDS011;13951;49.516;6.094;2023-02-23T03:07:19;12.97;;;5.60;;
26211;SDS011;13951;49.516;6.094;2023-02-23T03:13:12;12.97;;;5.57;;
26211;SDS011;13951;49.516;6.094;2023-02-23T03:16:20;11.40;;;5.70;;
26211;SDS011;13951;49.516;6.094;2023-02-23T03:19:17;13.83;;;5.73;;
26211;SDS011;13951;49.516;6.094;2023-02-23T03:25:15;12.93;;;5.40;;
26211;SDS011;13951;49.516;6.094;2023-02-23T03:34:09;13.57;;;6.60;;
26211;SDS011;13951;49.516;6.094;2023-02-23T03:37:05;13.53;;;6.13;;
26211;SDS011;13951;49.516;6.094;2023-02-23T03:42:59;11.73;;;5.70;;
26211;SDS011;13951;49.516;6.094;2023-02-23T03:45:51;13.87;;;6.37;;
26211;SDS011;13951;49.516;6.094;2023-02-23T03:48:45;13.80;;;6.47;;
26211;SDS011;13951;49.516;6.094;2023-02-23T03:51:38;11.93;;;5.73;;
26211;SDS011;13951;49.516;6.094;2023-02-23T03:54:34;12.43;;;5.70;;
26211;SDS011;13951;49.516;6.094;2023-02-23T03:57:26;12.60;;;6.30;;
26211;SDS011;13951;49.516;6.094;2023-02-23T04:00:20;14.83;;;6.53;;
26211;SDS011;13951;49.516;6.094;2023-02-23T04:03:15;13.47;;;6.93;;
26211;SDS011;13951;49.516;6.094;2023-02-23T04:06:08;12.20;;;5.70;;
26211;SDS011;13951;49.516;6.094;2023-02-23T04:09:03;12.23;;;5.87;;
26211;SDS011;13951;49.516;6.094;2023-02-23T04:12:01;13.70;;;6.07;;
26211;SDS011;13951;49.516;6.094;2023-02-23T04:14:56;17.55;;;9.13;;
26211;SDS011;13951;49.516;6.094;2023-02-23T04:17:32;14.67;;;6.90;;
26211;SDS011;13951;49.516;6.094;2023-02-23T04:20:05;10.37;;;5.83;;
26211;SDS011;13951;49.516;6.094;2023-02-23T04:22:38;12.37;;;6.80;;
26211;SDS011;13951;49.516;6.094;2023-02-23T04:25:12;14.33;;;6.73;;
26211;SDS011;13951;49.516;6.094;2023-02-23T04:27:48;15.57;;;7.97;;
26211;SDS011;13951;49.516;6.094;2023-02-23T04:30:21;11.37;;;6.13;;
26211;SDS011;13951;49.516;6.094;2023-02-23T04:32:59;15.47;;;6.60;;
26211;SDS011;13951;49.516;6.094;2023-02-23T04:35:32;11.93;;;5.97;;
26211;SDS011;13951;49.516;6.094;2023-02-23T04:38:05;14.40;;;6.73;;
26211;SDS011;13951;49.516;6.094;2023-02-23T04:40:38;13.27;;;5.87;;
26211;SDS011;13951;49.516;6.094;2023-02-23T04:43:11;13.57;;;6.37;;
26211;SDS011;13951;49.516;6.094;2023-02-23T04:45:44;11.83;;;6.13;;
26211;SDS011;13951;49.516;6.094;2023-02-23T04:48:17;11.77;;;6.17;;
26211;SDS011;13951;49.516;6.094;2023-02-23T04:50:51;16.43;;;6.53;;
26211;SDS011;13951;49.516;6.094;2023-02-23T04:53:23;12.87;;;6.27;;
26211;SDS011;13951;49.516;6.094;2023-02-23T04:55:58;13.13;;;6.37;;
26211;SDS011;13951;49.516;6.094;2023-02-23T04:58:31;11.60;;;5.57;;
26211;SDS011;13951;49.516;6.094;2023-02-23T05:01:04;11.53;;;5.90;;
26211;SDS011;13951;49.516;6.094;2023-02-23T05:03:38;12.37;;;6.40;;
26211;SDS011;13951;49.516;6.094;2023-02-23T05:06:10;11.37;;;5.90;;
26211;SDS011;13951;49.516;6.094;2023-02-23T05:08:44;13.43;;;6.27;;
26211;SDS011;13951;49.516;6.094;2023-02-23T05:11:17;17.53;;;7.17;;
26211;SDS011;13951;49.516;6.094;2023-02-23T05:13:50;11.57;;;5.87;;
26211;SDS011;13951;49.516;6.094;2023-02-23T05:16:24;14.70;;;6.00;;
26211;SDS011;13951;49.516;6.094;2023-02-23T05:18:57;10.40;;;5.73;;
26211;SDS011;13951;49.516;6.094;2023-02-23T05:21:30;11.83;;;6.20;;
26211;SDS011;13951;49.516;6.094;2023-02-23T05:24:03;13.60;;;6.23;;
26211;SDS011;13951;49.516;6.094;2023-02-23T05:26:36;13.53;;;6.37;;
26211;SDS011;13951;49.516;6.094;2023-02-23T05:29:09;14.27;;;6.70;;
26211;SDS011;13951;49.516;6.094;2023-02-23T05:31:42;12.37;;;5.83;;
26211;SDS011;13951;49.516;6.094;2023-02-23T05:34:16;13.17;;;6.53;;
26211;SDS011;13951;49.516;6.094;2023-02-23T05:36:49;13.10;;;6.13;;
26211;SDS011;13951;49.516;6.094;2023-02-23T05:39:21;12.87;;;6.33;;
26211;SDS011;13951;49.516;6.094;2023-02-23T05:41:55;12.43;;;6.33;;
26211;SDS011;13951;49.516;6.094;2023-02-23T05:44:28;11.90;;;5.77;;
26211;SDS011;13951;49.516;6.094;2023-02-23T05:47:01;16.98;;;9.15;;
26211;SDS011;13951;49.516;6.094;2023-02-23T05:49:33;13.37;;;6.60;;
26211;SDS011;13951;49.516;6.094;2023-02-23T05:52:06;14.10;;;6.60;;
26211;SDS011;13951;49.516;6.094;2023-02-23T05:54:40;11.43;;;5.87;;
26211;SDS011;13951;49.516;6.094;2023-02-23T05:57:13;12.33;;;5.70;;
26211;SDS011;13951;49.516;6.094;2023-02-23T05:59:46;14.55;;;7.63;;
26211;SDS011;13951;49.516;6.094;2023-02-23T06:02:19;9.90;;;5.57;;
26211;SDS011;13951;49.516;6.094;2023-02-23T06:04:53;11.87;;;5.50;;
26211;SDS011;13951;49.516;6.094;2023-02-23T06:07:26;10.87;;;5.60;;
26211;SDS011;13951;49.516;6.094;2023-02-23T06:09:59;12.37;;;6.00;;
26211;SDS011;13951;49.516;6.094;2023-02-23T06:12:33;13.93;;;5.20;;
26211;SDS011;13951;49.516;6.094;2023-02-23T06:15:06;10.67;;;5.80;;
26211;SDS011;13951;49.516;6.094;2023-02-23T06:17:39;12.33;;;5.57;;
26211;SDS011;13951;49.516;6.094;2023-02-23T06:20:12;14.43;;;5.37;;
26211;SDS011;13951;49.516;6.094;2023-02-23T06:22:45;10.63;;;5.17;;
26211;SDS011;13951;49.516;6.094;2023-02-23T06:25:19;12.20;;;5.80;;
26211;SDS011;13951;49.516;6.094;2023-02-23T06:27:52;11.30;;;5.77;;
26211;SDS011;13951;49.516;6.094;2023-02-23T06:30:25;13.03;;;5.33;;
26211;SDS011;13951;49.516;6.094;2023-02-23T06:32:58;12.30;;;5.10;;
26211;SDS011;13951;49.516;6.094;2023-02-23T06:35:32;12.47;;;5.50;;
26211;SDS011;13951;49.516;6.094;2023-02-23T06:38:05;10.43;;;5.13;;
26211;SDS011;13951;49.516;6.094;2023-02-23T06:40:38;11.67;;;5.97;;
26211;SDS011;13951;49.516;6.094;2023-02-23T06:43:12;12.00;;;6.27;;
26211;SDS011;13951;49.516;6.094;2023-02-23T06:45:45;12.23;;;6.37;;
26211;SDS011;13951;49.516;6.094;2023-02-23T06:48:18;11.23;;;5.33;;
26211;SDS011;13951;49.516;6.094;2023-02-23T06:50:51;10.20;;;5.63;;
26211;SDS011;13951;49.516;6.094;2023-02-23T06:53:24;14.07;;;6.30;;
26211;SDS011;13951;49.516;6.094;2023-02-23T06:55:57;14.20;;;5.93;;
26211;SDS011;13951;49.516;6.094;2023-02-23T06:58:30;9.93;;;5.67;;
26211;SDS011;13951;49.516;6.094;2023-02-23T07:01:03;9.10;;;5.00;;
26211;SDS011;13951;49.516;6.094;2023-02-23T07:03:36;13.40;;;6.07;;
26211;SDS011;13951;49.516;6.094;2023-02-23T07:06:09;13.70;;;5.90;;
26211;SDS011;13951;49.516;6.094;2023-02-23T07:08:42;10.70;;;6.23;;
26211;SDS011;13951;49.516;6.094;2023-02-23T07:11:16;11.67;;;5.70;;
26211;SDS011;13951;49.516;6.094;2023-02-23T07:13:51;9.73;;;5.33;;
26211;SDS011;13951;49.516;6.094;2023-02-23T07:16:24;11.07;;;5.87;;
26211;SDS011;13951;49.516;6.094;2023-02-23T07:18:58;9.23;;;5.27;;
26211;SDS011;13951;49.516;6.094;2023-02-23T07:21:32;11.57;;;5.40;;
26211;SDS011;13951;49.516;6.094;2023-02-23T07:24:05;12.37;;;5.93;;
26211;SDS011;13951;49.516;6.094;2023-02-23T07:26:38;13.47;;;6.27;;
26211;SDS011;13951;49.516;6.094;2023-02-23T07:29:14;12.10;;;6.17;;
26211;SDS011;13951;49.516;6.094;2023-02-23T07:31:47;17.33;;;9.17;;
26211;SDS011;13951;49.516;6.094;2023-02-23T07:34:21;13.63;;;6.67;;
26211;SDS011;13951;49.516;6.094;2023-02-23T07:36:54;13.43;;;7.17;;
26211;SDS011;13951;49.516;6.094;2023-02-23T07:39:27;14.43;;;6.87;;
26211;SDS011;13951;49.516;6.094;2023-02-23T07:42:00;16.73;;;6.90;;
26211;SDS011;13951;49.516;6.094;2023-02-23T07:44:34;14.20;;;7.03;;
26211;SDS011;13951;49.516;6.094;2023-02-23T07:47:08;13.83;;;6.57;;
26211;SDS011;13951;49.516;6.094;2023-02-23T07:49:41;12.77;;;6.57;;
26211;SDS011;13951;49.516;6.094;2023-02-23T07:52:16;14.13;;;6.50;;
26211;SDS011;13951;49.516;6.094;2023-02-23T07:54:49;12.80;;;5.93;;
26211;SDS011;13951;49.516;6.094;2023-02-23T07:57:22;11.63;;;6.70;;
26211;SDS011;13951;49.516;6.094;2023-02-23T07:59:56;12.67;;;6.33;;
26211;SDS011;13951;49.516;6.094;2023-02-23T08:02:29;12.67;;;6.60;;
26211;SDS011;13951;49.516;6.094;2023-02-23T08:05:03;12.50;;;5.70;;
26211;SDS011;13951;49.516;6.094;2023-02-23T08:07:36;13.07;;;6.37;;
26211;SDS011;13951;49.516;6.094;2023-02-23T08:10:09;14.97;;;6.73;;
26211;SDS011;13951;49.516;6.094;2023-02-23T08:12:42;15.53;;;6.90;;
26211;SDS011;13951;49.516;6.094;2023-02-23T08:15:16;12.70;;;5.87;;
26211;SDS011;13951;49.516;6.094;2023-02-23T08:17:48;17.37;;;7.17;;
26211;SDS011;13951;49.516;6.094;2023-02-23T08:20:22;13.80;;;7.20;;
26211;SDS011;13951;49.516;6.094;2023-02-23T08:22:56;15.63;;;7.57;;
26211;SDS011;13951;49.516;6.094;2023-02-23T08:25:29;20.27;;;8.63;;
26211;SDS011;13951;49.516;6.094;2023-02-23T08:28:02;17.67;;;8.63;;
26211;SDS011;13951;49.516;6.094;2023-02-23T08:30:39;16.80;;;8.33;;
26211;SDS011;13951;49.516;6.094;2023-02-23T08:33:12;20.07;;;8.63;;
26211;SDS011;13951;49.516;6.094;2023-02-23T08:35:45;19.67;;;8.90;;
26211;SDS011;13951;49.516;6.094;2023-02-23T08:38:18;16.03;;;8.10;;
26211;SDS011;13951;49.516;6.094;2023-02-23T08:40:51;18.10;;;8.47;;
26211;SDS011;13951;49.516;6.094;2023-02-23T08:43:25;16.60;;;8.23;;
26211;SDS011;13951;49.516;6.094;2023-02-23T08:45:58;20.17;;;10.57;;
26211;SDS011;13951;49.516;6.094;2023-02-23T08:48:31;18.80;;;9.00;;
26211;SDS011;13951;49.516;6.094;2023-02-23T08:51:05;16.40;;;8.23;;
26211;SDS011;13951;49.516;6.094;2023-02-23T08:53:38;20.57;;;9.13;;
26211;SDS011;13951;49.516;6.094;2023-02-23T08:56:11;23.43;;;9.87;;
26211;SDS011;13951;49.516;6.094;2023-02-23T08:58:46;21.63;;;9.77;;
26211;SDS011;13951;49.516;6.094;2023-02-23T09:01:19;24.92;;;13.07;;
26211;SDS011;13951;49.516;6.094;2023-02-23T09:03:53;14.60;;;8.47;;
26211;SDS011;13951;49.516;6.094;2023-02-23T09:06:26;19.63;;;8.77;;
26211;SDS011;13951;49.516;6.094;2023-02-23T09:08:59;17.80;;;8.80;;
26211;SDS011;13951;49.516;6.094;2023-02-23T09:11:32;19.57;;;9.07;;
26211;SDS011;13951;49.516;6.094;2023-02-23T09:14:05;18.70;;;9.00;;
26211;SDS011;13951;49.516;6.094;2023-02-23T09:16:39;17.50;;;8.37;;
26211;SDS011;13951;49.516;6.094;2023-02-23T09:19:12;20.40;;;9.50;;
26211;SDS011;13951;49.516;6.094;2023-02-23T09:21:45;19.87;;;8.90;;
26211;SDS011;13951;49.516;6.094;2023-02-23T09:24:19;15.63;;;8.27;;
26211;SDS011;13951;49.516;6.094;2023-02-23T09:26:52;17.07;;;8.87;;
26211;SDS011;13951;49.516;6.094;2023-02-23T09:29:25;18.47;;;8.90;;
26211;SDS011;13951;49.516;6.094;2023-02-23T09:31:58;20.07;;;9.20;;
26211;SDS011;13951;49.516;6.094;2023-02-23T09:34:31;18.53;;;8.43;;
26211;SDS011;13951;49.516;6.094;2023-02-23T09:37:07;20.20;;;8.87;;
26211;SDS011;13951;49.516;6.094;2023-02-23T09:39:40;16.33;;;8.63;;
26211;SDS011;13951;49.516;6.094;2023-02-23T09:45:11;18.10;;;9.13;;
26211;SDS011;13951;49.516;6.094;2023-02-23T09:47:50;20.30;;;9.20;;
26211;SDS011;13951;49.516;6.094;2023-02-23T09:50:27;21.23;;;10.03;;
26211;SDS011;13951;49.516;6.094;2023-02-23T09:53:02;16.57;;;8.43;;
26211;SDS011;13951;49.516;6.094;2023-02-23T09:55:37;21.90;;;9.43;;
26211;SDS011;13951;49.516;6.094;2023-02-23T09:58:16;20.27;;;9.40;;
26211;SDS011;13951;49.516;6.094;2023-02-23T10:03:58;22.27;;;9.77;;
26211;SDS011;13951;49.516;6.094;2023-02-23T10:06:36;17.57;;;9.10;;
26211;SDS011;13951;49.516;6.094;2023-02-23T10:09:14;15.93;;;8.50;;
26211;SDS011;13951;49.516;6.094;2023-02-23T10:11:52;19.07;;;9.13;;
26211;SDS011;13951;49.516;6.094;2023-02-23T10:19:58;18.10;;;9.70;;
26211;SDS011;13951;49.516;6.094;2023-02-23T10:22:34;21.17;;;9.57;;
26211;SDS011;13951;49.516;6.094;2023-02-23T10:25:16;19.20;;;9.57;;
26211;SDS011;13951;49.516;6.094;2023-02-23T10:27:51;21.37;;;11.00;;
26211;SDS011;13951;49.516;6.094;2023-02-23T10:30:27;19.87;;;10.17;;
26211;SDS011;13951;49.516;6.094;2023-02-23T10:33:14;17.60;;;8.53;;
26211;SDS011;13951;49.516;6.094;2023-02-23T10:35:48;16.27;;;8.70;;
26211;SDS011;13951;49.516;6.094;2023-02-23T10:38:31;18.87;;;8.60;;
26211;SDS011;13951;49.516;6.094;2023-02-23T10:41:04;18.83;;;8.83;;
26211;SDS011;13951;49.516;6.094;2023-02-23T10:43:37;16.17;;;8.20;;
26211;SDS011;13951;49.516;6.094;2023-02-23T10:46:16;17.63;;;7.67;;
26211;SDS011;13951;49.516;6.094;2023-02-23T10:48:50;15.03;;;8.53;;
26211;SDS011;13951;49.516;6.094;2023-02-23T10:51:24;13.47;;;7.47;;
26211;SDS011;13951;49.516;6.094;2023-02-23T10:53:59;14.23;;;7.23;;
26211;SDS011;13951;49.516;6.094;2023-02-23T10:56:55;12.50;;;7.43;;
26211;SDS011;13951;49.516;6.094;2023-02-23T10:59:28;15.77;;;7.97;;
26211;SDS011;13951;49.516;6.094;2023-02-23T11:02:14;16.40;;;9.23;;
26211;SDS011;13951;49.516;6.094;2023-02-23T11:04:51;14.10;;;8.63;;
26211;SDS011;13951;49.516;6.094;2023-02-23T11:07:26;12.53;;;7.70;;
26211;SDS011;13951;49.516;6.094;2023-02-23T11:10:25;13.47;;;7.03;;
26211;SDS011;13951;49.516;6.094;2023-02-23T11:13:01;13.23;;;7.10;;
26211;SDS011;13951;49.516;6.094;2023-02-23T11:15:35;13.13;;;7.67;;
26211;SDS011;13951;49.516;6.094;2023-02-23T11:18:22;12.13;;;7.40;;
26211;SDS011;13951;49.516;6.094;2023-02-23T11:20:57;15.27;;;8.23;;
26211;SDS011;13951;49.516;6.094;2023-02-23T11:23:32;14.00;;;7.73;;
26211;SDS011;13951;49.516;6.094;2023-02-23T11:26:18;12.63;;;6.53;;
26211;SDS011;13951;49.516;6.094;2023-02-23T11:28:55;15.80;;;8.27;;
26211;SDS011;13951;49.516;6.094;2023-02-23T11:31:30;20.50;;;10.20;;
26211;SDS011;13951;49.516;6.094;2023-02-23T11:34:05;16.47;;;9.43;;
26211;SDS011;13951;49.516;6.094;2023-02-23T11:36:38;13.53;;;7.83;;
26211;SDS011;13951;49.516;6.094;2023-02-23T11:39:20;13.37;;;7.17;;
26211;SDS011;13951;49.516;6.094;2023-02-23T11:42:05;11.77;;;6.30;;
26211;SDS011;13951;49.516;6.094;2023-02-23T11:44:50;13.60;;;6.90;;
26211;SDS011;13951;49.516;6.094;2023-02-23T11:47:23;11.73;;;6.60;;
26211;SDS011;13951;49.516;6.094;2023-02-23T11:49:57;13.30;;;6.87;;
26211;SDS011;13951;49.516;6.094;2023-02-23T11:52:29;13.40;;;6.90;;
26211;SDS011;13951;49.516;6.094;2023-02-23T11:55:06;12.73;;;8.38;;
26211;SDS011;13951;49.516;6.094;2023-02-23T11:57:39;12.33;;;7.20;;
26211;SDS011;13951;49.516;6.094;2023-02-23T12:00:19;11.67;;;6.73;;
26211;SDS011;13951;49.516;6.094;2023-02-23T12:02:56;13.37;;;7.17;;
26211;SDS011;13951;49.516;6.094;2023-02-23T12:05:30;12.20;;;7.03;;
26211;SDS011;13951;49.516;6.094;2023-02-23T12:08:10;11.63;;;6.97;;
26211;SDS011;13951;49.516;6.094;2023-02-23T12:10:50;11.27;;;6.53;;
26211;SDS011;13951;49.516;6.094;2023-02-23T12:13:34;13.07;;;6.83;;
26211;SDS011;13951;49.516;6.094;2023-02-23T12:21:35;13.67;;;7.40;;
26211;SDS011;13951;49.516;6.094;2023-02-23T12:26:57;11.53;;;6.60;;
26211;SDS011;13951;49.516;6.094;2023-02-23T12:32:12;20.83;;;9.87;;
26211;SDS011;13951;49.516;6.094;2023-02-23T12:34:57;11.67;;;6.73;;
26211;SDS011;13951;49.516;6.094;2023-02-23T12:37:35;10.17;;;6.43;;
26211;SDS011;13951;49.516;6.094;2023-02-23T12:40:16;13.10;;;6.70;;
26211;SDS011;13951;49.516;6.094;2023-02-23T12:45:26;10.53;;;6.30;;
26211;SDS011;13951;49.516;6.094;2023-02-23T12:50:52;12.90;;;7.07;;
26211;SDS011;13951;49.516;6.094;2023-02-23T12:53:36;10.43;;;6.77;;
26211;SDS011;13951;49.516;6.094;2023-02-23T13:09:42;9.87;;;6.60;;
26211;SDS011;13951;49.516;6.094;2023-02-23T13:17:46;12.30;;;5.70;;
26211;SDS011;13951;49.516;6.094;2023-02-23T13:28:28;40.77;;;24.30;;
26211;SDS011;13951;49.516;6.094;2023-02-23T13:31:03;10.10;;;6.13;;
26211;SDS011;13951;49.516;6.094;2023-02-23T13:33:37;8.13;;;5.93;;
26211;SDS011;13951;49.516;6.094;2023-02-23T13:36:15;10.27;;;5.93;;
26211;SDS011;13951;49.516;6.094;2023-02-23T13:41:28;16.13;;;6.47;;
26211;SDS011;13951;49.516;6.094;2023-02-23T13:44:08;9.60;;;5.77;;
26211;SDS011;13951;49.516;6.094;2023-02-23T13:51:52;11.07;;;5.53;;
26211;SDS011;13951;49.516;6.094;2023-02-23T13:54:31;11.20;;;6.60;;
26211;SDS011;13951;49.516;6.094;2023-02-23T13:57:12;11.27;;;6.57;;
26211;SDS011;13951;49.516;6.094;2023-02-23T13:59:47;10.07;;;5.80;;
26211;SDS011;13951;49.516;6.094;2023-02-23T14:02:35;10.93;;;6.07;;
26211;SDS011;13951;49.516;6.094;2023-02-23T14:05:25;10.27;;;6.50;;
26211;SDS011;13951;49.516;6.094;2023-02-23T14:08:03;10.23;;;6.50;;
26211;SDS011;13951;49.516;6.094;2023-02-23T14:10:37;10.97;;;6.60;;
26211;SDS011;13951;49.516;6.094;2023-02-23T14:15:45;10.57;;;6.00;;
26211;SDS011;13951;49.516;6.094;2023-02-23T14:18:29;9.77;;;5.40;;
26211;SDS011;13951;49.516;6.094;2023-02-23T14:23:49;8.90;;;5.87;;
26211;SDS011;13951;49.516;6.094;2023-02-23T14:29:09;8.83;;;5.40;;
26211;SDS011;13951;49.516;6.094;2023-02-23T14:32:45;13.00;;;6.47;;
26211;SDS011;13951;49.516;6.094;2023-02-23T14:34:49;9.37;;;5.50;;
26211;SDS011;13951;49.516;6.094;2023-02-23T14:37:38;10.67;;;6.17;;
26211;SDS011;13951;49.516;6.094;2023-02-23T14:40:13;11.68;;;7.13;;
26211;SDS011;13951;49.516;6.094;2023-02-23T14:42:49;9.10;;;6.03;;
26211;SDS011;13951;49.516;6.094;2023-02-23T14:45:26;9.97;;;5.00;;
26211;SDS011;13951;49.516;6.094;2023-02-23T14:48:00;8.67;;;5.60;;
26211;SDS011;13951;49.516;6.094;2023-02-23T14:50:34;13.10;;;7.63;;
26211;SDS011;13951;49.516;6.094;2023-02-23T14:53:12;11.60;;;6.80;;
26211;SDS011;13951;49.516;6.094;2023-02-23T14:55:49;10.30;;;5.80;;
26211;SDS011;13951;49.516;6.094;2023-02-23T14:58:23;10.53;;;5.57;;
26211;SDS011;13951;49.516;6.094;2023-02-23T15:00:56;9.37;;;6.17;;
26211;SDS011;13951;49.516;6.094;2023-02-23T15:03:29;11.10;;;6.10;;
26211;SDS011;13951;49.516;6.094;2023-02-23T15:06:02;13.50;;;6.03;;
26211;SDS011;13951;49.516;6.094;2023-02-23T15:08:37;9.43;;;5.97;;
26211;SDS011;13951;49.516;6.094;2023-02-23T15:11:12;11.73;;;5.60;;
26211;SDS011;13951;49.516;6.094;2023-02-23T15:13:46;9.03;;;5.80;;
26211;SDS011;13951;49.516;6.094;2023-02-23T15:16:28;10.87;;;6.23;;
26211;SDS011;13951;49.516;6.094;2023-02-23T15:19:03;11.37;;;6.30;;
26211;SDS011;13951;49.516;6.094;2023-02-23T15:21:36;10.10;;;5.77;;
26211;SDS011;13951;49.516;6.094;2023-02-23T15:24:12;11.63;;;5.50;;
26211;SDS011;13951;49.516;6.094;2023-02-23T15:26:53;10.00;;;5.90;;
26211;SDS011;13951;49.516;6.094;2023-02-23T15:29:31;9.57;;;5.90;;
26211;SDS011;13951;49.516;6.094;2023-02-23T15:32:38;11.70;;;6.03;;
26211;SDS011;13951;49.516;6.094;2023-02-23T15:35:07;12.60;;;6.23;;
26211;SDS011;13951;49.516;6.094;2023-02-23T15:37:43;9.90;;;6.03;;
26211;SDS011;13951;49.516;6.094;2023-02-23T15:40:18;9.53;;;5.97;;
26211;SDS011;13951;49.516;6.094;2023-02-23T15:42:53;8.80;;;6.00;;
26211;SDS011;13951;49.516;6.094;2023-02-23T15:45:37;12.70;;;7.95;;
26211;SDS011;13951;49.516;6.094;2023-02-23T15:48:17;11.03;;;6.07;;
26211;SDS011;13951;49.516;6.094;2023-02-23T15:50:55;12.73;;;6.53;;
26211;SDS011;13951;49.516;6.094;2023-02-23T15:53:29;10.20;;;6.00;;
26211;SDS011;13951;49.516;6.094;2023-02-23T15:56:12;43.90;;;21.63;;
26211;SDS011;13951;49.516;6.094;2023-02-23T15:58:47;35.10;;;18.77;;
26211;SDS011;13951;49.516;6.094;2023-02-23T16:01:28;10.67;;;6.33;;
26211;SDS011;13951;49.516;6.094;2023-02-23T16:04:05;9.87;;;5.53;;
26211;SDS011;13951;49.516;6.094;2023-02-23T16:06:48;9.73;;;6.07;;
26211;SDS011;13951;49.516;6.094;2023-02-23T16:09:25;9.83;;;5.77;;
26211;SDS011;13951;49.516;6.094;2023-02-23T16:12:02;13.33;;;6.47;;
26211;SDS011;13951;49.516;6.094;2023-02-23T16:14:47;10.80;;;5.90;;
26211;SDS011;13951;49.516;6.094;2023-02-23T16:17:23;10.43;;;5.87;;
26211;SDS011;13951;49.516;6.094;2023-02-23T16:22:49;10.87;;;6.03;;
26211;SDS011;13951;49.516;6.094;2023-02-23T16:25:25;10.53;;;6.13;;
26211;SDS011;13951;49.516;6.094;2023-02-23T16:28:03;13.23;;;6.90;;
26211;SDS011;13951;49.516;6.094;2023-02-23T16:30:40;11.40;;;6.27;;
26211;SDS011;13951;49.516;6.094;2023-02-23T16:33:24;12.77;;;6.47;;
26211;SDS011;13951;49.516;6.094;2023-02-23T16:38:47;11.03;;;6.30;;
26211;SDS011;13951;49.516;6.094;2023-02-23T16:41:32;12.00;;;6.47;;
26211;SDS011;13951;49.516;6.094;2023-02-23T16:44:05;11.80;;;6.07;;
26211;SDS011;13951;49.516;6.094;2023-02-23T16:49:20;12.00;;;6.63;;
26211;SDS011;13951;49.516;6.094;2023-02-23T16:51:55;10.33;;;6.43;;
26211;SDS011;13951;49.516;6.094;2023-02-23T16:54:28;9.27;;;5.83;;
26211;SDS011;13951;49.516;6.094;2023-02-23T16:57:01;11.07;;;5.50;;
26211;SDS011;13951;49.516;6.094;2023-02-23T16:59:37;5.53;;;3.50;;
26211;SDS011;13951;49.516;6.094;2023-02-23T17:02:10;4.87;;;3.50;;
26211;SDS011;13951;49.516;6.094;2023-02-23T17:04:44;7.38;;;4.32;;
26211;SDS011;13951;49.516;6.094;2023-02-23T17:07:19;4.43;;;3.27;;
26211;SDS011;13951;49.516;6.094;2023-02-23T17:09:55;5.30;;;2.73;;
26211;SDS011;13951;49.516;6.094;2023-02-23T17:12:28;9.13;;;2.93;;
26211;SDS011;13951;49.516;6.094;2023-02-23T17:15:02;5.37;;;2.53;;
26211;SDS011;13951;49.516;6.094;2023-02-23T17:17:35;5.13;;;2.20;;
26211;SDS011;13951;49.516;6.094;2023-02-23T17:20:10;4.47;;;2.47;;
26211;SDS011;13951;49.516;6.094;2023-02-23T17:22:48;3.87;;;2.60;;
26211;SDS011;13951;49.516;6.094;2023-02-23T17:25:22;3.83;;;2.03;;
26211;SDS011;13951;49.516;6.094;2023-02-23T17:27:57;5.93;;;2.13;;
26211;SDS011;13951;49.516;6.094;2023-02-23T17:30:31;2.77;;;1.90;;
26211;SDS011;13951;49.516;6.094;2023-02-23T17:33:04;2.73;;;2.00;;